createdAt,value
2023-02-17T00:01:31.278Z,19.23
2023-02-17T00:03:59.110Z,18.40
2023-02-17T00:06:28.482Z,17.48
2023-02-17T00:08:55.305Z,18.73
2023-02-17T00:11:22.383Z,17.67
2023-02-17T00:13:49.125Z,17.73
2023-02-17T00:16:19.980Z,18.13
2023-02-17T00:18:47.823Z,17.90
2023-02-17T00:21:20.333Z,19.77
2023-02-17T00:23:48.416Z,18.83
2023-02-17T00:26:15.990Z,18.83
2023-02-17T00:28:43.722Z,18.58
2023-02-17T00:31:14.598Z,20.17
2023-02-17T00:33:41.321Z,19.50
2023-02-17T00:36:17.862Z,19.73
2023-02-17T00:38:45.332Z,20.80
2023-02-17T00:41:12.092Z,19.92
2023-02-17T00:43:38.828Z,16.92
2023-02-17T00:46:06.256Z,19.35
2023-02-17T00:48:33.860Z,16.83
2023-02-17T00:51:00.802Z,18.95
2023-02-17T00:53:28.126Z,16.67
2023-02-17T00:55:54.845Z,16.55
2023-02-17T00:58:21.858Z,21.95
2023-02-17T01:00:48.611Z,21.38
2023-02-17T01:03:15.625Z,20.48
2023-02-17T01:05:44.515Z,20.45
2023-02-17T01:08:11.828Z,20.42
2023-02-17T01:10:40.580Z,20.05
2023-02-17T01:13:08.779Z,20.90
2023-02-17T01:15:43.741Z,20.60
2023-02-17T01:18:10.476Z,20.27
2023-02-17T01:20:38.641Z,20.63
2023-02-17T01:23:06.875Z,20.20
2023-02-17T01:25:37.744Z,19.13
2023-02-17T01:28:05.464Z,21.20
2023-02-17T01:30:32.563Z,20.35
2023-02-17T01:32:59.286Z,21.35
2023-02-17T01:35:26.038Z,20.33
2023-02-17T01:37:52.746Z,20.67
2023-02-17T01:40:19.607Z,18.42
2023-02-17T01:42:46.371Z,19.27
2023-02-17T01:45:19.126Z,19.52
2023-02-17T01:47:50.504Z,18.23
2023-02-17T01:50:20.782Z,16.77
2023-02-17T01:52:47.549Z,17.90
2023-02-17T01:55:19.374Z,16.83
2023-02-17T01:57:47.744Z,16.85
2023-02-17T02:00:17.492Z,16.58
2023-02-17T02:02:47.566Z,16.15
2023-02-17T02:05:15.436Z,17.08
2023-02-17T02:07:44.223Z,15.75
2023-02-17T02:10:12.528Z,16.52
2023-02-17T02:12:40.855Z,17.30
2023-02-17T02:15:09.510Z,18.30
2023-02-17T02:17:45.326Z,18.48
2023-02-17T02:20:14.820Z,19.02
2023-02-17T02:22:59.508Z,18.33
2023-02-17T02:25:29.506Z,17.98
2023-02-17T02:28:15.113Z,17.67
2023-02-17T02:31:10.882Z,16.92
2023-02-17T02:33:47.336Z,16.63
2023-02-17T02:36:34.302Z,17.58
2023-02-17T02:39:10.374Z,16.70
2023-02-17T02:41:42.123Z,13.80
2023-02-17T02:46:36.723Z,17.67
2023-02-17T02:49:04.673Z,17.17
2023-02-17T02:51:37.545Z,18.90
2023-02-17T02:54:15.528Z,19.27
2023-02-17T02:56:49.248Z,17.77
2023-02-17T02:59:18.797Z,19.17
2023-02-17T03:01:57.834Z,19.00
2023-02-17T03:04:36.643Z,17.92
2023-02-17T03:07:06.885Z,19.45
2023-02-17T03:09:34.904Z,19.63
2023-02-17T03:12:01.603Z,19.27
2023-02-17T03:14:28.992Z,18.60
2023-02-17T03:16:55.829Z,17.73
2023-02-17T03:19:24.667Z,19.15
2023-02-17T03:22:05.434Z,18.00
2023-02-17T03:24:32.954Z,17.58
2023-02-17T03:26:59.673Z,17.58
2023-02-17T03:29:26.445Z,19.30
2023-02-17T03:31:53.211Z,18.20
2023-02-17T03:34:20.000Z,15.90
2023-02-17T03:36:46.698Z,16.42
2023-02-17T03:39:13.385Z,18.70
2023-02-17T03:41:40.115Z,19.50
2023-02-17T03:44:06.838Z,19.98
2023-02-17T03:46:33.622Z,21.13
2023-02-17T03:49:00.318Z,22.13
2023-02-17T03:51:27.023Z,22.80
2023-02-17T03:53:53.788Z,20.77
2023-02-17T03:56:20.770Z,22.65
2023-02-17T03:58:47.702Z,21.55
2023-02-17T04:01:14.710Z,21.77
2023-02-17T04:03:42.053Z,22.92
2023-02-17T04:06:10.596Z,22.23
2023-02-17T04:08:38.575Z,24.15
2023-02-17T04:11:07.007Z,24.60
2023-02-17T04:13:34.020Z,25.30
2023-02-17T04:16:07.319Z,25.27
2023-02-17T04:18:35.265Z,24.00
2023-02-17T04:21:02.264Z,23.10
2023-02-17T04:23:29.168Z,23.83
2023-02-17T04:25:55.940Z,23.08
2023-02-17T04:28:22.718Z,20.23
2023-02-17T04:30:51.059Z,18.70
2023-02-17T04:33:18.535Z,18.65
2023-02-17T04:35:45.783Z,19.80
2023-02-17T04:38:12.627Z,16.70
2023-02-17T04:40:39.568Z,20.17
2023-02-17T04:43:06.553Z,19.90
2023-02-17T04:45:34.935Z,20.17
2023-02-17T04:48:01.911Z,21.23
2023-02-17T04:50:28.910Z,20.58
2023-02-17T04:52:55.625Z,21.55
2023-02-17T04:55:22.333Z,21.10
2023-02-17T04:57:49.026Z,22.05
2023-02-17T05:00:15.861Z,22.63
2023-02-17T05:02:42.768Z,21.17
2023-02-17T05:05:09.779Z,23.67
2023-02-17T05:07:36.492Z,23.35
2023-02-17T05:10:03.457Z,23.63
2023-02-17T05:12:30.201Z,24.83
2023-02-17T05:14:56.950Z,24.33
2023-02-17T05:17:23.699Z,21.90
2023-02-17T05:19:50.411Z,24.98
2023-02-17T05:22:17.315Z,24.42
2023-02-17T05:24:44.060Z,24.20
2023-02-17T05:27:10.779Z,22.95
2023-02-17T05:29:37.720Z,24.45
2023-02-17T05:32:04.446Z,25.00
2023-02-17T05:34:31.299Z,25.02
2023-02-17T05:36:58.107Z,23.80
2023-02-17T05:39:24.936Z,24.38
2023-02-17T05:41:51.674Z,23.67
2023-02-17T05:44:18.414Z,21.67
2023-02-17T05:46:45.325Z,21.67
2023-02-17T05:49:12.129Z,20.55
2023-02-17T05:51:39.181Z,21.08
2023-02-17T05:54:06.075Z,19.52
2023-02-17T05:56:32.906Z,19.85
2023-02-17T05:59:00.583Z,18.48
2023-02-17T06:01:27.649Z,17.92
2023-02-17T06:03:54.453Z,17.38
2023-02-17T06:06:21.293Z,15.93
2023-02-17T06:08:48.043Z,15.68
2023-02-17T06:11:14.817Z,15.60
2023-02-17T06:13:41.518Z,16.88
2023-02-17T06:16:08.596Z,16.65
2023-02-17T06:18:35.469Z,17.27
2023-02-17T06:21:02.390Z,17.60
2023-02-17T06:23:29.459Z,17.35
2023-02-17T06:25:56.246Z,17.95
2023-02-17T06:28:22.938Z,18.55
2023-02-17T06:30:49.697Z,16.25
2023-02-17T06:33:16.392Z,18.30
2023-02-17T06:35:44.523Z,18.35
2023-02-17T06:38:11.330Z,18.13
2023-02-17T06:40:38.166Z,18.45
2023-02-17T06:43:06.947Z,15.55
2023-02-17T06:45:33.772Z,16.23
2023-02-17T06:48:00.478Z,15.30
2023-02-17T06:50:27.508Z,15.00
2023-02-17T06:52:54.287Z,15.55
2023-02-17T06:55:21.068Z,15.13
2023-02-17T06:57:47.805Z,13.65
2023-02-17T07:00:14.806Z,13.98
2023-02-17T07:02:41.750Z,13.13
2023-02-17T07:05:08.659Z,13.93
2023-02-17T07:07:35.585Z,13.25
2023-02-17T07:10:03.451Z,14.10
2023-02-17T07:12:30.441Z,12.10
2023-02-17T07:14:57.338Z,12.93
2023-02-17T07:17:24.679Z,12.10
2023-02-17T07:19:51.482Z,13.32
2023-02-17T07:22:18.256Z,13.10
2023-02-17T07:24:45.024Z,12.93
2023-02-17T07:27:11.800Z,12.60
2023-02-17T07:29:38.739Z,12.38
2023-02-17T07:32:05.918Z,11.77
2023-02-17T07:34:32.791Z,12.63
2023-02-17T07:36:59.485Z,12.35
2023-02-17T07:39:26.355Z,10.18
2023-02-17T07:41:53.128Z,9.88
2023-02-17T07:44:19.860Z,9.55
2023-02-17T07:46:46.622Z,11.20
2023-02-17T07:49:14.769Z,11.52
2023-02-17T07:51:41.546Z,10.65
2023-02-17T07:54:08.517Z,10.35
2023-02-17T07:56:35.322Z,9.98
2023-02-17T07:59:02.182Z,10.13
2023-02-17T08:01:28.982Z,10.68
2023-02-17T08:03:56.504Z,10.70
2023-02-17T08:06:24.922Z,10.98
2023-02-17T08:09:11.860Z,11.20
2023-02-17T08:11:58.256Z,11.25
2023-02-17T08:14:28.038Z,11.88
2023-02-17T08:16:55.032Z,10.15
2023-02-17T08:19:22.282Z,8.25
2023-02-17T08:21:49.346Z,10.10
2023-02-17T08:24:22.039Z,11.52
2023-02-17T08:26:49.825Z,9.90
2023-02-17T08:29:17.031Z,10.43
2023-02-17T08:31:44.171Z,9.77
2023-02-17T08:34:13.119Z,10.30
2023-02-17T08:36:40.392Z,10.10
2023-02-17T08:39:11.496Z,10.07
2023-02-17T08:41:39.297Z,9.60
2023-02-17T08:44:16.301Z,9.15
2023-02-17T08:46:43.991Z,9.25
2023-02-17T08:49:11.534Z,9.20
2023-02-17T08:51:38.940Z,8.50
2023-02-17T08:54:07.364Z,9.45
2023-02-17T08:56:34.812Z,8.63
2023-02-17T08:59:01.662Z,7.85
2023-02-17T09:01:28.554Z,8.95
2023-02-17T09:03:57.190Z,8.70
2023-02-17T09:06:24.909Z,9.13
2023-02-17T09:08:51.812Z,8.43
2023-02-17T09:11:20.880Z,8.77
2023-02-17T09:13:47.754Z,8.65
2023-02-17T09:16:15.014Z,8.48
2023-02-17T09:18:41.848Z,8.57
2023-02-17T09:21:11.858Z,8.93
2023-02-17T09:23:39.700Z,9.18
2023-02-17T09:26:11.399Z,7.97
2023-02-17T09:31:18.981Z,7.25
2023-02-17T09:33:47.752Z,7.88
2023-02-17T09:36:17.033Z,9.25
2023-02-17T09:38:43.842Z,8.23
2023-02-17T09:41:19.503Z,7.97
2023-02-17T09:43:46.758Z,7.38
2023-02-17T09:46:26.592Z,7.60
2023-02-17T09:49:15.989Z,7.47
2023-02-17T09:51:45.205Z,8.10
2023-02-17T09:54:18.791Z,8.15
2023-02-17T09:56:49.024Z,8.45
2023-02-17T09:59:24.371Z,9.10
2023-02-17T10:01:53.853Z,8.52
2023-02-17T10:04:34.274Z,8.98
2023-02-17T10:07:07.943Z,9.23
2023-02-17T10:09:40.727Z,8.85
2023-02-17T10:12:14.129Z,7.47
2023-02-17T10:14:46.580Z,8.40
2023-02-17T10:17:33.965Z,7.82
2023-02-17T10:20:24.486Z,8.20
2023-02-17T10:22:56.302Z,8.05
2023-02-17T10:25:49.330Z,8.05
2023-02-17T10:28:27.600Z,8.20
2023-02-17T10:31:15.357Z,7.88
2023-02-17T10:33:59.280Z,7.43
2023-02-17T10:36:36.605Z,7.18
2023-02-17T10:39:16.484Z,8.25
2023-02-17T10:41:48.505Z,8.07
2023-02-17T10:44:22.921Z,6.20
2023-02-17T10:46:51.266Z,7.07
2023-02-17T10:49:32.864Z,8.00
2023-02-17T10:52:03.125Z,8.40
2023-02-17T10:54:36.120Z,8.50
2023-02-17T10:57:08.166Z,7.63
2023-02-17T10:59:44.384Z,7.72
2023-02-17T11:02:19.105Z,7.88
2023-02-17T11:04:52.024Z,7.85
2023-02-17T11:07:23.208Z,7.72
2023-02-17T11:09:54.167Z,8.55
2023-02-17T11:12:27.672Z,7.78
2023-02-17T11:14:55.819Z,7.72
2023-02-17T11:17:41.346Z,8.80
2023-02-17T11:20:13.850Z,7.80
2023-02-17T11:22:44.578Z,8.48
2023-02-17T11:25:21.792Z,7.93
2023-02-17T11:27:59.492Z,9.05
2023-02-17T11:30:28.524Z,9.07
2023-02-17T11:32:55.473Z,9.73
2023-02-17T11:35:24.626Z,8.93
2023-02-17T11:37:51.456Z,8.55
2023-02-17T11:40:26.699Z,9.32
2023-02-17T11:43:01.925Z,9.10
2023-02-17T11:45:50.629Z,8.55
2023-02-17T11:48:28.170Z,8.90
2023-02-17T11:51:18.306Z,8.93
2023-02-17T11:54:09.503Z,7.95
2023-02-17T11:56:39.210Z,9.23
2023-02-17T11:59:24.620Z,7.00
2023-02-17T12:02:28.843Z,8.65
2023-02-17T12:05:16.744Z,8.93
2023-02-17T12:08:01.593Z,7.05
2023-02-17T12:10:37.466Z,8.15
2023-02-17T12:13:22.663Z,8.75
2023-02-17T12:16:02.694Z,8.25
2023-02-17T12:18:47.350Z,6.85
2023-02-17T12:21:35.409Z,8.07
2023-02-17T12:24:39.900Z,8.02
2023-02-17T12:27:23.042Z,6.70
2023-02-17T12:30:19.878Z,7.93
2023-02-17T12:33:04.620Z,7.15
2023-02-17T12:35:53.300Z,7.45
2023-02-17T12:38:46.475Z,7.38
2023-02-17T12:41:43.335Z,6.63
2023-02-17T12:44:14.795Z,6.93
2023-02-17T12:46:48.783Z,7.10
2023-02-17T12:49:21.526Z,6.88
2023-02-17T12:52:06.088Z,6.55
2023-02-17T12:54:43.571Z,6.63
2023-02-17T12:57:29.586Z,7.43
2023-02-17T12:59:58.655Z,7.10
2023-02-17T13:02:26.370Z,8.45
2023-02-17T13:04:57.925Z,7.60
2023-02-17T13:07:39.696Z,7.15
2023-02-17T13:12:39.647Z,8.55
2023-02-17T13:15:31.643Z,7.40
2023-02-17T13:20:45.862Z,7.03
2023-02-17T13:23:14.828Z,7.28
2023-02-17T13:25:41.937Z,6.22
2023-02-17T13:28:33.358Z,7.07
2023-02-17T13:31:10.385Z,6.57
2023-02-17T13:33:44.274Z,6.00
2023-02-17T13:36:35.270Z,5.43
2023-02-17T13:39:29.940Z,6.40
2023-02-17T13:41:59.382Z,5.75
2023-02-17T13:44:28.997Z,6.20
2023-02-17T13:47:05.019Z,5.47
2023-02-17T13:49:35.117Z,7.18
2023-02-17T13:52:19.725Z,7.57
2023-02-17T13:55:19.516Z,6.72
2023-02-17T13:57:51.503Z,7.20
2023-02-17T14:00:31.377Z,6.38
2023-02-17T14:03:30.119Z,6.20
2023-02-17T14:05:59.076Z,6.03
2023-02-17T14:08:34.756Z,5.53
2023-02-17T14:11:09.768Z,6.15
2023-02-17T14:13:39.029Z,5.90
2023-02-17T14:16:07.516Z,6.97
2023-02-17T14:18:37.943Z,6.47
2023-02-17T14:21:23.496Z,6.03
2023-02-17T14:23:53.786Z,6.82
2023-02-17T14:26:43.766Z,6.28
2023-02-17T14:29:15.150Z,6.05
2023-02-17T14:31:45.618Z,6.50
2023-02-17T14:34:24.376Z,6.28
2023-02-17T14:36:51.526Z,6.82
2023-02-17T14:39:18.241Z,6.38
2023-02-17T14:41:45.087Z,6.05
2023-02-17T14:44:11.840Z,6.82
2023-02-17T14:46:39.716Z,6.20
2023-02-17T14:49:06.536Z,5.38
2023-02-17T14:51:36.381Z,6.75
2023-02-17T14:54:10.686Z,5.28
2023-02-17T14:56:42.139Z,6.45
2023-02-17T14:59:10.362Z,5.45
2023-02-17T15:01:37.079Z,5.50
2023-02-17T15:04:04.885Z,6.45
2023-02-17T15:06:44.320Z,6.50
2023-02-17T15:09:13.530Z,6.82
2023-02-17T15:11:42.422Z,6.70
2023-02-17T15:14:14.915Z,6.25
2023-02-17T15:16:41.801Z,6.28
2023-02-17T15:19:10.372Z,6.57
2023-02-17T15:21:39.136Z,6.70
2023-02-17T15:24:22.215Z,6.55
2023-02-17T15:26:48.997Z,6.53
2023-02-17T15:29:18.781Z,6.25
2023-02-17T15:31:46.570Z,6.15
2023-02-17T15:34:19.762Z,6.68
2023-02-17T15:36:47.400Z,6.22
2023-02-17T15:39:16.931Z,7.03
2023-02-17T15:41:46.149Z,6.90
2023-02-17T15:44:17.606Z,5.90
2023-02-17T15:46:46.275Z,6.03
2023-02-17T15:49:13.647Z,6.68
2023-02-17T15:51:40.390Z,5.25
2023-02-17T15:54:07.217Z,5.82
2023-02-17T15:56:53.489Z,5.32
2023-02-17T15:59:24.481Z,5.72
2023-02-17T16:01:51.670Z,6.50
2023-02-17T16:04:18.470Z,6.93
2023-02-17T16:06:45.278Z,6.88
2023-02-17T16:09:11.994Z,6.40
2023-02-17T16:11:51.487Z,6.57
2023-02-17T16:14:35.096Z,5.55
2023-02-17T16:17:03.094Z,5.97
2023-02-17T16:19:29.943Z,5.97
2023-02-17T16:21:56.806Z,4.85
2023-02-17T16:24:23.596Z,6.40
2023-02-17T16:26:50.420Z,5.32
2023-02-17T16:29:22.075Z,5.82
2023-02-17T16:34:18.293Z,5.30
2023-02-17T16:36:45.492Z,5.45
2023-02-17T16:39:17.130Z,6.18
2023-02-17T16:44:13.390Z,5.60
2023-02-17T16:46:54.673Z,6.07
2023-02-17T16:49:33.906Z,6.05
2023-02-17T16:52:06.054Z,5.60
2023-02-17T16:54:35.456Z,5.80
2023-02-17T16:57:02.532Z,5.70
2023-02-17T16:59:29.291Z,5.25
2023-02-17T17:01:56.048Z,5.75
2023-02-17T17:04:22.960Z,4.50
2023-02-17T17:06:52.113Z,5.15
2023-02-17T17:09:24.836Z,4.93
2023-02-17T17:11:51.596Z,6.00
2023-02-17T17:14:20.561Z,6.38
2023-02-17T17:16:54.901Z,5.50
2023-02-17T17:19:22.487Z,4.72
2023-02-17T17:21:49.392Z,5.25
2023-02-17T17:24:16.137Z,5.47
2023-02-17T17:26:45.828Z,6.38
2023-02-17T17:29:14.466Z,5.10
2023-02-17T17:31:41.847Z,5.60
2023-02-17T17:34:08.720Z,6.20
2023-02-17T17:36:40.896Z,5.90
2023-02-17T17:39:13.364Z,6.80
2023-02-17T17:41:40.065Z,5.57
2023-02-17T17:44:07.965Z,5.75
2023-02-17T17:46:37.232Z,5.18
2023-02-17T17:49:05.944Z,6.00
2023-02-17T17:51:33.806Z,5.93
2023-02-17T17:54:01.062Z,5.90
2023-02-17T17:56:30.713Z,6.28
2023-02-17T17:58:59.626Z,5.13
2023-02-17T18:01:27.031Z,6.38
2023-02-17T18:03:54.009Z,5.78
2023-02-17T18:06:41.442Z,5.47
2023-02-17T18:09:13.333Z,6.40
2023-02-17T18:11:44.681Z,6.05
2023-02-17T18:14:14.014Z,5.38
2023-02-17T18:16:44.278Z,5.93
2023-02-17T18:19:12.428Z,5.85
2023-02-17T18:21:39.912Z,6.25
2023-02-17T18:24:07.065Z,5.53
2023-02-17T18:26:34.452Z,6.40
2023-02-17T18:29:01.208Z,5.50
2023-02-17T18:31:29.683Z,6.32
2023-02-17T18:33:56.637Z,6.15
2023-02-17T18:36:26.408Z,5.82
2023-02-17T18:38:53.521Z,6.53
2023-02-17T18:41:26.570Z,6.80
2023-02-17T18:43:54.232Z,5.70
2023-02-17T18:46:21.115Z,6.35
2023-02-17T18:48:48.026Z,5.95
2023-02-17T18:51:17.313Z,6.03
2023-02-17T18:53:44.075Z,6.30
2023-02-17T18:56:16.626Z,6.05
2023-02-17T18:58:43.358Z,9.57
2023-02-17T19:01:31.361Z,10.95
2023-02-17T19:03:59.275Z,11.05
2023-02-17T19:06:29.320Z,10.75
2023-02-17T19:08:56.818Z,10.60
2023-02-17T19:11:24.759Z,10.45
2023-02-17T19:13:52.407Z,8.98
2023-02-17T19:16:25.254Z,9.30
2023-02-17T19:18:52.347Z,10.07
2023-02-17T19:21:19.608Z,10.43
2023-02-17T19:23:47.217Z,9.88
2023-02-17T19:26:15.422Z,9.15
2023-02-17T19:28:43.548Z,10.40
2023-02-17T19:31:15.955Z,9.50
2023-02-17T19:33:44.720Z,9.18
2023-02-17T19:36:22.721Z,10.30
2023-02-17T19:38:50.466Z,10.25
2023-02-17T19:41:19.195Z,9.68
2023-02-17T19:43:46.529Z,9.35
2023-02-17T19:46:19.835Z,11.68
2023-02-17T19:48:46.986Z,10.70
2023-02-17T19:51:14.164Z,10.20
2023-02-17T19:53:43.089Z,10.60
2023-02-17T19:56:16.440Z,10.95
2023-02-17T19:58:44.554Z,10.68
2023-02-17T20:01:15.537Z,10.65
2023-02-17T20:03:42.606Z,10.63
2023-02-17T20:06:17.259Z,10.60
2023-02-17T20:08:45.343Z,10.70
2023-02-17T20:11:13.098Z,10.65
2023-02-17T20:13:46.194Z,11.18
2023-02-17T20:16:15.721Z,11.73
2023-02-17T20:18:44.930Z,11.50
2023-02-17T20:21:14.129Z,11.80
2023-02-17T20:23:40.844Z,12.00
2023-02-17T20:26:13.310Z,11.77
2023-02-17T20:28:40.712Z,11.10
2023-02-17T20:31:07.910Z,11.45
2023-02-17T20:33:35.727Z,11.65
2023-02-17T20:36:03.994Z,11.25
2023-02-17T20:38:30.880Z,12.00
2023-02-17T20:40:58.521Z,11.80
2023-02-17T20:43:25.957Z,10.98
2023-02-17T20:45:53.727Z,11.55
2023-02-17T20:48:21.794Z,11.18
2023-02-17T20:50:48.991Z,11.30
2023-02-17T20:53:15.739Z,9.65
2023-02-17T20:55:42.509Z,11.25
2023-02-17T20:58:11.034Z,11.25
2023-02-17T21:00:38.108Z,12.18
2023-02-17T21:03:05.415Z,10.85
2023-02-17T21:05:32.486Z,11.48
2023-02-17T21:07:59.716Z,11.70
2023-02-17T21:10:29.600Z,10.50
2023-02-17T21:12:56.552Z,10.52
2023-02-17T21:15:23.499Z,11.13
2023-02-17T21:17:50.580Z,11.98
2023-02-17T21:20:20.118Z,11.57
2023-02-17T21:22:46.996Z,10.90
2023-02-17T21:25:13.748Z,12.27
2023-02-17T21:27:40.575Z,12.05
2023-02-17T21:30:10.698Z,12.65
2023-02-17T21:32:38.057Z,11.35
2023-02-17T21:35:05.006Z,11.15
2023-02-17T21:37:31.778Z,11.65
2023-02-17T21:39:59.070Z,11.88
2023-02-17T21:42:45.872Z,11.90
2023-02-17T21:45:12.821Z,12.10
2023-02-17T21:47:39.518Z,11.32
2023-02-17T21:50:07.149Z,11.68
2023-02-17T21:52:33.870Z,11.77
2023-02-17T21:55:01.623Z,11.73
2023-02-17T21:57:28.373Z,11.65
2023-02-17T21:59:55.089Z,11.00
2023-02-17T22:02:21.781Z,10.10
2023-02-17T22:04:48.637Z,10.32
2023-02-17T22:07:15.409Z,10.05
2023-02-17T22:09:42.144Z,10.88
2023-02-17T22:12:08.819Z,9.52
2023-02-17T22:14:35.619Z,10.13
2023-02-17T22:17:02.427Z,9.50
2023-02-17T22:19:31.342Z,10.13
2023-02-17T22:21:58.324Z,10.00
2023-02-17T22:24:27.276Z,10.15
2023-02-17T22:26:54.708Z,10.43
2023-02-17T22:29:21.536Z,10.02
2023-02-17T22:31:50.352Z,10.25
2023-02-17T22:34:17.334Z,11.38
2023-02-17T22:36:44.102Z,10.30
2023-02-17T22:39:10.941Z,11.43
2023-02-17T22:41:39.294Z,10.98
2023-02-17T22:44:06.911Z,11.95
2023-02-17T22:46:34.256Z,12.52
2023-02-17T22:49:01.485Z,11.68
2023-02-17T22:51:31.561Z,12.35
2023-02-17T22:53:59.709Z,11.98
2023-02-17T22:56:26.505Z,12.88
2023-02-17T22:58:57.797Z,13.77
2023-02-17T23:01:25.249Z,15.23
2023-02-17T23:03:54.314Z,14.82
2023-02-17T23:06:33.483Z,16.20
2023-02-17T23:09:01.994Z,16.48
2023-02-17T23:11:49.828Z,16.65
2023-02-17T23:14:22.645Z,17.95
2023-02-17T23:16:50.021Z,17.73
2023-02-17T23:19:20.229Z,19.45
2023-02-17T23:21:50.136Z,20.80
2023-02-17T23:24:18.783Z,22.40
2023-02-17T23:26:47.525Z,23.30
2023-02-17T23:29:15.458Z,22.85
2023-02-17T23:31:42.748Z,23.45
2023-02-17T23:34:11.927Z,23.08
2023-02-17T23:36:40.021Z,23.80
2023-02-17T23:39:07.145Z,24.52
2023-02-17T23:41:36.020Z,25.58
2023-02-17T23:44:02.891Z,26.35
2023-02-17T23:46:29.950Z,26.50
2023-02-17T23:48:56.798Z,26.23
2023-02-17T23:51:23.614Z,28.42
2023-02-17T23:53:50.603Z,27.45
2023-02-17T23:56:24.845Z,28.38
2023-02-17T23:58:51.928Z,26.83
